Time;durP1;ratioP1;P1;durP2;ratioP2;P2;SDS_P1;SDS_P2;PMS_P1;PMS_P2;Temp;Humidity;BMP_temperature;BMP_pressure;BME280_temperature;BME280_humidity;BME280_pressure;Samples;Min_cycle;Max_cycle;Signal;HPM_P1;HPM_P2
2021/04/25 00:01:21;;;;;;;11.20;5.47;;;;;;;10.86;44.67;96989.50;5031587;28;20567;-68
2021/04/25 00:03:46;;;;;;;11.23;5.40;;;;;;;11.05;44.24;96987.59;5030423;28;20188;-68
2021/04/25 00:06:12;;;;;;;10.60;5.63;;;;;;;10.29;45.81;96996.13;5031174;28;20176;-70
2021/04/25 00:08:38;;;;;;;10.00;5.27;;;;;;;10.57;45.73;96990.72;5030597;28;20235;-69
2021/04/25 00:11:03;;;;;;;14.70;5.40;;;;;;;10.86;44.86;96999.97;5031137;28;20180;-70
2021/04/25 00:13:29;;;;;;;6.43;4.70;;;;;;;10.70;45.29;96989.47;5034496;28;20184;-69
2021/04/25 00:15:56;;;;;;;6.67;4.90;;;;;;;10.98;44.53;96989.19;5035024;28;20186;-68
2021/04/25 00:18:22;;;;;;;7.30;5.50;;;;;;;10.56;45.67;96989.06;5033547;28;20200;-70
2021/04/25 00:20:48;;;;;;;9.00;5.20;;;;;;;10.33;46.00;96982.72;5031988;28;20426;-70
2021/04/25 00:23:13;;;;;;;9.70;5.20;;;;;;;10.53;45.70;96988.53;5030340;28;20447;-70
2021/04/25 00:25:40;;;;;;;6.27;4.43;;;;;;;10.35;46.13;96980.75;5031110;28;20500;-70
2021/04/25 00:28:05;;;;;;;8.13;4.90;;;;;;;10.16;46.53;96982.63;5035257;28;20469;-69
2021/04/25 00:30:31;;;;;;;8.27;5.30;;;;;;;10.22;46.28;96979.38;5034991;28;20591;-69
2021/04/25 00:32:56;;;;;;;7.03;4.97;;;;;;;10.24;46.40;96980.03;5039526;28;20188;-70
2021/04/25 00:35:22;;;;;;;10.43;4.83;;;;;;;10.18;46.38;96978.06;5035062;28;20212;-69
2021/04/25 00:37:48;;;;;;;9.67;5.23;;;;;;;10.21;46.37;96977.72;5039312;28;20267;-69
2021/04/25 00:40:15;;;;;;;8.83;4.60;;;;;;;9.97;47.02;96974.00;5043826;28;20183;-70
2021/04/25 00:42:42;;;;;;;11.50;5.30;;;;;;;10.11;47.01;96971.78;5043587;28;20597;-70
2021/04/25 00:45:12;;;;;;;8.40;4.97;;;;;;;10.23;46.56;96978.41;5047471;28;20418;-69
2021/04/25 00:47:39;;;;;;;8.50;5.10;;;;;;;10.28;46.42;96968.28;5045710;28;21012;-70
2021/04/25 00:50:05;;;;;;;8.90;4.77;;;;;;;10.45;46.07;96971.03;5040482;28;20445;-69
2021/04/25 00:52:34;;;;;;;6.80;5.07;;;;;;;10.34;46.40;96958.13;5034922;28;20422;-69
2021/04/25 00:54:59;;;;;;;8.83;5.10;;;;;;;10.16;46.62;96961.66;5042717;28;20480;-69
2021/04/25 00:57:25;;;;;;;8.50;5.13;;;;;;;10.23;46.93;96956.63;5033730;28;20450;-69
2021/04/25 00:59:52;;;;;;;9.27;4.20;;;;;;;10.37;46.40;96963.06;5048477;28;20185;-68
2021/04/25 01:02:18;;;;;;;10.67;5.27;;;;;;;10.10;46.75;96967.50;5034097;28;20190;-71
2021/04/25 01:04:44;;;;;;;13.93;5.40;;;;;;;10.37;46.57;96969.16;5034257;28;20914;-70
2021/04/25 01:07:09;;;;;;;9.10;5.10;;;;;;;9.88;47.49;96967.06;5039445;28;20214;-69
2021/04/25 01:09:35;;;;;;;10.47;5.37;;;;;;;9.89;47.52;96966.09;5032995;28;20227;-71
2021/04/25 01:12:01;;;;;;;7.83;4.93;;;;;;;10.15;47.11;96967.88;5033381;28;20187;-70
2021/04/25 01:14:26;;;;;;;9.80;5.17;;;;;;;10.13;47.00;96973.28;5034003;28;20275;-68
2021/04/25 01:16:52;;;;;;;12.67;5.33;;;;;;;10.12;47.18;96971.63;5032831;28;20596;-70
2021/04/25 01:19:17;;;;;;;7.50;5.03;;;;;;;10.06;47.01;96966.19;5033853;28;20620;-70
2021/04/25 01:21:43;;;;;;;13.03;5.10;;;;;;;9.81;47.53;96961.63;5049038;28;20208;-69
2021/04/25 01:24:09;;;;;;;8.47;5.80;;;;;;;10.00;47.68;96967.63;5033736;28;20180;-69
2021/04/25 01:26:34;;;;;;;9.90;4.47;;;;;;;9.95;47.81;96964.66;5033537;28;20191;-68
2021/04/25 01:29:01;;;;;;;13.50;5.50;;;;;;;10.02;47.39;96959.63;5032426;28;20212;-70
2021/04/25 01:31:27;;;;;;;7.77;5.60;;;;;;;9.59;48.31;96967.34;5035594;28;20297;-69
2021/04/25 01:33:52;;;;;;;9.07;5.30;;;;;;;9.62;48.47;96973.09;5033124;28;20486;-68
2021/04/25 01:36:18;;;;;;;10.77;5.40;;;;;;;9.99;47.46;96966.00;5015171;28;20638;-70
2021/04/25 01:38:44;;;;;;;9.10;5.47;;;;;;;9.74;47.93;96970.22;5031622;28;20199;-70
2021/04/25 01:41:09;;;;;;;9.97;5.43;;;;;;;9.56;48.85;96976.34;5034108;28;20604;-70
2021/04/25 01:43:35;;;;;;;7.10;5.03;;;;;;;9.41;49.39;96985.69;5034325;28;20183;-69
2021/04/25 01:46:00;;;;;;;7.80;5.10;;;;;;;9.42;49.61;96992.56;5034677;28;20192;-69
2021/04/25 01:48:26;;;;;;;10.40;5.67;;;;;;;9.47;48.83;96987.69;5036816;28;20219;-70
2021/04/25 01:50:52;;;;;;;8.83;5.73;;;;;;;9.20;49.62;97002.47;5038432;28;20210;-70
2021/04/25 01:53:17;;;;;;;14.03;6.33;;;;;;;9.13;49.97;96999.66;5036781;28;20540;-68
2021/04/25 01:55:43;;;;;;;9.43;5.10;;;;;;;9.07;50.19;96989.78;5031275;28;20203;-70
2021/04/25 01:58:10;;;;;;;7.20;5.43;;;;;;;9.11;50.15;96992.91;5033081;28;20557;-70
2021/04/25 02:00:37;;;;;;;9.13;5.67;;;;;;;8.97;50.15;96997.66;5032929;28;20210;-70
2021/04/25 02:03:03;;;;;;;8.70;5.70;;;;;;;8.81;50.55;96995.72;5033302;28;20444;-69
2021/04/25 02:05:29;;;;;;;11.77;5.47;;;;;;;9.24;49.98;96992.56;5031993;28;20418;-69
2021/04/25 02:07:55;;;;;;;7.77;5.60;;;;;;;8.99;50.28;96989.69;5032827;28;20480;-69
2021/04/25 02:10:21;;;;;;;7.50;5.00;;;;;;;8.90;50.93;96994.00;5032832;28;20192;-69
2021/04/25 02:12:48;;;;;;;7.57;5.90;;;;;;;9.12;50.48;96981.50;5032829;28;20191;-69
2021/04/25 02:15:16;;;;;;;10.13;5.70;;;;;;;8.79;50.73;96984.56;5033057;28;20414;-70
2021/04/25 02:17:42;;;;;;;10.00;5.80;;;;;;;9.15;49.86;96989.84;5029870;28;20445;-70
2021/04/25 02:20:12;;;;;;;13.43;5.87;;;;;;;8.85;50.61;96988.41;5032720;28;21083;-69
2021/04/25 02:22:38;;;;;;;11.40;6.33;;;;;;;8.82;50.63;96989.53;5046963;28;20546;-70
2021/04/25 02:25:05;;;;;;;11.83;5.43;;;;;;;8.84;51.28;96989.34;5032514;28;20458;-68
2021/04/25 02:27:31;;;;;;;13.77;6.30;;;;;;;9.00;50.62;96991.34;5033120;28;20446;-68
2021/04/25 02:29:57;;;;;;;9.03;5.93;;;;;;;9.16;50.05;96981.03;5041841;28;20427;-69
2021/04/25 02:32:22;;;;;;;10.27;5.27;;;;;;;9.09;49.91;96976.53;5043000;28;20434;-68
2021/04/25 02:34:48;;;;;;;9.00;6.13;;;;;;;8.84;50.39;96981.53;5032517;28;20557;-69
2021/04/25 02:37:14;;;;;;;8.20;5.30;;;;;;;8.70;51.75;96972.41;5031498;28;20249;-69
2021/04/25 02:39:39;;;;;;;9.70;5.87;;;;;;;8.93;50.75;96978.03;5032463;28;20525;-70
2021/04/25 02:42:05;;;;;;;9.57;5.70;;;;;;;9.27;49.79;96968.72;5030849;28;20175;-69
2021/04/25 02:44:31;;;;;;;10.93;6.13;;;;;;;9.00;50.69;96975.66;5031997;28;20191;-71
2021/04/25 02:46:56;;;;;;;7.90;5.80;;;;;;;9.00;50.43;96970.44;5032789;28;20184;-70
2021/04/25 02:49:22;;;;;;;10.20;5.60;;;;;;;9.05;50.44;96974.25;5031755;28;20219;-70
2021/04/25 02:51:47;;;;;;;8.77;5.23;;;;;;;9.22;50.19;96975.22;5032338;28;20604;-69
2021/04/25 02:54:13;;;;;;;10.47;5.57;;;;;;;8.85;50.38;96970.94;5031783;28;20184;-69
2021/04/25 02:56:38;;;;;;;11.03;6.37;;;;;;;8.75;50.94;96972.78;5031413;28;20184;-69
2021/04/25 02:59:04;;;;;;;11.47;6.60;;;;;;;8.82;50.83;96970.41;5032041;28;20241;-70
2021/04/25 03:01:30;;;;;;;11.50;6.40;;;;;;;8.50;52.14;96963.84;5030216;28;20241;-69
2021/04/25 03:03:55;;;;;;;8.10;5.57;;;;;;;8.60;51.83;96967.22;5047543;28;20191;-69
2021/04/25 03:06:21;;;;;;;10.40;6.07;;;;;;;8.81;51.50;96960.94;5027422;28;20190;-69
2021/04/25 03:08:46;;;;;;;9.93;5.87;;;;;;;8.85;50.51;96955.25;5031873;28;20222;-68
2021/04/25 03:11:12;;;;;;;11.93;6.47;;;;;;;8.76;51.23;96954.34;5031632;28;20221;-69
2021/04/25 03:13:38;;;;;;;10.83;6.00;;;;;;;8.52;51.54;96959.28;5030436;28;20179;-69
2021/04/25 03:16:04;;;;;;;10.50;5.80;;;;;;;8.39;52.56;96973.47;5030172;28;20183;-71
2021/04/25 03:18:29;;;;;;;9.83;6.30;;;;;;;8.50;52.09;96961.22;5030638;28;20674;-69
2021/04/25 03:20:55;;;;;;;10.80;6.20;;;;;;;8.64;52.03;96960.75;5029049;28;20430;-69
2021/04/25 03:23:21;;;;;;;7.83;5.10;;;;;;;8.45;51.52;96949.38;5031414;28;20538;-70
2021/04/25 03:25:47;;;;;;;9.83;6.40;;;;;;;8.14;52.79;96954.88;5030932;28;20234;-68
2021/04/25 03:28:12;;;;;;;12.90;6.17;;;;;;;8.27;52.64;96956.34;5031239;28;20454;-70
2021/04/25 03:30:38;;;;;;;10.07;5.60;;;;;;;8.42;52.22;96957.53;5032885;28;20183;-70
2021/04/25 03:33:05;;;;;;;10.77;6.20;;;;;;;8.37;52.38;96956.31;5031494;28;20219;-69
2021/04/25 03:35:30;;;;;;;9.00;5.30;;;;;;;8.07;53.02;96959.03;5033877;28;20191;-69
2021/04/25 03:37:56;;;;;;;14.57;6.77;;;;;;;7.89;53.72;96955.50;5031527;28;20492;-69
2021/04/25 03:40:22;;;;;;;11.10;6.23;;;;;;;8.03;53.63;96955.06;5030392;28;20183;-69
2021/04/25 03:42:48;;;;;;;11.63;6.20;;;;;;;7.97;53.36;96955.63;5031002;28;20686;-69
2021/04/25 03:45:14;;;;;;;12.90;6.30;;;;;;;8.14;52.81;96957.50;5033288;28;20551;-68
2021/04/25 03:47:41;;;;;;;13.20;5.87;;;;;;;8.35;52.62;96951.22;5029722;28;20473;-69
2021/04/25 03:50:07;;;;;;;10.07;6.27;;;;;;;8.36;52.02;96959.91;5028834;28;20488;-70
2021/04/25 03:52:33;;;;;;;7.30;5.67;;;;;;;8.17;52.65;96964.22;5026663;28;20461;-69
2021/04/25 03:54:58;;;;;;;8.57;5.67;;;;;;;8.16;53.01;96965.19;5013307;28;20430;-71
2021/04/25 03:57:24;;;;;;;12.63;6.30;;;;;;;8.05;53.36;96963.59;5029688;28;20345;-70
2021/04/25 03:59:50;;;;;;;7.93;5.97;;;;;;;8.09;52.89;96966.72;5042814;28;20283;-67
2021/04/25 04:02:16;;;;;;;8.00;5.70;;;;;;;7.75;53.56;96962.00;5042402;28;20172;-67
2021/04/25 04:04:44;;;;;;;12.17;6.10;;;;;;;7.85;53.81;96970.63;5043318;28;20423;-68
2021/04/25 04:07:11;;;;;;;18.53;6.60;;;;;;;7.69;53.87;96965.97;5042574;28;20206;-68
2021/04/25 04:09:38;;;;;;;9.13;5.67;;;;;;;7.62;54.24;96962.28;5053364;28;20458;-68
2021/04/25 04:12:08;;;;;;;14.23;6.40;;;;;;;7.74;54.34;96969.00;5023537;28;20442;-69
2021/04/25 04:14:34;;;;;;;11.00;6.30;;;;;;;7.72;54.26;96965.69;5046226;28;20437;-68
2021/04/25 04:17:00;;;;;;;10.70;5.83;;;;;;;7.90;54.01;96973.63;5038117;28;20426;-69
2021/04/25 04:19:26;;;;;;;11.03;5.60;;;;;;;7.86;53.64;96976.66;5024791;28;20419;-69
2021/04/25 04:21:52;;;;;;;7.33;5.37;;;;;;;7.95;53.67;96973.19;5033475;28;20433;-70
2021/04/25 04:24:18;;;;;;;9.37;6.50;;;;;;;7.90;53.66;96976.25;5034165;28;20216;-69
2021/04/25 04:26:43;;;;;;;14.10;6.70;;;;;;;7.64;54.15;96976.84;5033277;28;20188;-68
2021/04/25 04:29:09;;;;;;;10.90;6.60;;;;;;;7.78;54.25;96983.41;5034603;28;20683;-69
2021/04/25 04:31:35;;;;;;;9.73;6.43;;;;;;;7.75;54.09;96981.09;5033923;28;20306;-68
2021/04/25 04:34:00;;;;;;;9.63;6.20;;;;;;;7.49;55.35;96986.88;5034346;28;20454;-69
2021/04/25 04:36:26;;;;;;;10.90;6.23;;;;;;;7.23;56.10;96986.63;5033414;28;20210;-70
2021/04/25 04:38:51;;;;;;;25.90;6.40;;;;;;;7.49;55.23;96984.28;5034220;28;20242;-70
2021/04/25 04:41:17;;;;;;;13.00;6.80;;;;;;;7.54;55.13;96989.06;5033937;28;20183;-70
2021/04/25 04:43:43;;;;;;;15.73;6.23;;;;;;;7.58;54.71;96987.00;5034535;28;20180;-69
2021/04/25 04:46:13;;;;;;;20.50;6.67;;;;;;;7.33;55.73;96997.88;5037751;28;20190;-69
2021/04/25 04:48:39;;;;;;;13.57;7.10;;;;;;;7.31;56.32;97004.19;5006041;28;20920;-68
2021/04/25 04:51:05;;;;;;;13.33;6.47;;;;;;;7.31;55.70;97007.59;5037761;28;20415;-68
2021/04/25 04:53:30;;;;;;;13.80;6.80;;;;;;;7.22;56.20;97017.06;5036986;28;20190;-68
2021/04/25 04:55:56;;;;;;;9.20;6.20;;;;;;;7.31;56.30;97019.81;5034214;28;20198;-69
2021/04/25 04:58:22;;;;;;;15.20;7.10;;;;;;;7.50;55.71;97014.59;5034389;28;20290;-68
2021/04/25 05:00:48;;;;;;;14.23;6.97;;;;;;;7.37;56.10;97016.66;5034367;28;20190;-69
2021/04/25 05:03:15;;;;;;;10.53;7.23;;;;;;;7.49;55.78;97005.13;5036650;28;20801;-68
2021/04/25 05:05:41;;;;;;;11.83;6.90;;;;;;;7.45;55.85;97011.56;5037688;28;20275;-68
2021/04/25 05:08:06;;;;;;;10.40;6.20;;;;;;;7.32;56.29;97013.63;5038799;28;20501;-72
2021/04/25 05:10:32;;;;;;;10.97;7.17;;;;;;;7.09;57.00;97015.69;5034926;28;20426;-70
2021/04/25 05:12:58;;;;;;;13.10;6.70;;;;;;;7.25;56.56;97009.94;5034009;28;20190;-71
2021/04/25 05:15:23;;;;;;;13.27;6.73;;;;;;;7.30;56.47;97018.19;5034536;28;20556;-71
2021/04/25 05:17:49;;;;;;;12.53;7.03;;;;;;;7.22;56.50;97019.66;5033435;28;20203;-71
2021/04/25 05:20:15;;;;;;;13.13;6.97;;;;;;;7.43;56.28;97026.56;5034108;28;20172;-70
2021/04/25 05:22:40;;;;;;;9.43;6.20;;;;;;;7.79;55.33;97024.19;5031054;28;20191;-70
2021/04/25 05:25:07;;;;;;;17.43;6.80;;;;;;;8.05;54.64;97018.41;5033090;28;20217;-70
2021/04/25 05:27:32;;;;;;;16.70;6.60;;;;;;;8.17;53.97;97021.66;5033871;28;20234;-69
2021/04/25 05:29:58;;;;;;;10.17;6.27;;;;;;;8.69;52.98;97021.22;5033588;28;20422;-70
2021/04/25 05:32:24;;;;;;;10.57;6.67;;;;;;;8.63;52.61;97027.03;5032488;28;20638;-72
2021/04/25 05:34:49;;;;;;;15.33;7.70;;;;;;;8.98;52.12;97029.88;5033414;28;20559;-69
2021/04/25 05:37:15;;;;;;;12.53;7.43;;;;;;;8.97;52.03;97018.59;5033749;28;20207;-70
2021/04/25 05:39:41;;;;;;;10.17;7.00;;;;;;;9.37;51.45;97021.78;5036830;28;20183;-70
2021/04/25 05:42:07;;;;;;;12.80;7.83;;;;;;;9.65;50.33;97027.75;5031539;28;20928;-70
2021/04/25 05:44:32;;;;;;;13.83;7.77;;;;;;;9.89;50.09;97018.44;5033359;28;20184;-70
2021/04/25 05:46:58;;;;;;;11.63;7.10;;;;;;;9.61;50.08;97023.78;5032906;28;20186;-70
2021/04/25 05:49:24;;;;;;;11.77;7.30;;;;;;;9.51;51.38;97023.84;5033051;28;20310;-69
2021/04/25 05:51:49;;;;;;;16.30;7.87;;;;;;;10.16;49.46;97019.28;5030262;28;20188;-70
2021/04/25 05:54:15;;;;;;;14.37;7.83;;;;;;;10.01;49.10;97037.34;5035106;28;20180;-70
2021/04/25 05:56:40;;;;;;;15.53;7.80;;;;;;;10.67;48.13;97039.56;5049030;28;20176;-70
2021/04/25 05:59:06;;;;;;;11.93;8.07;;;;;;;10.97;47.04;97032.13;5048611;28;20208;-71
2021/04/25 06:01:32;;;;;;;14.83;7.90;;;;;;;10.07;48.53;97031.50;5032655;28;20222;-71
2021/04/25 06:03:57;;;;;;;18.27;8.23;;;;;;;9.82;49.67;97039.16;5039898;28;20222;-71
2021/04/25 06:06:24;;;;;;;16.73;8.73;;;;;;;9.82;49.88;97039.16;5032517;28;20183;-68
2021/04/25 06:08:49;;;;;;;12.50;8.37;;;;;;;9.87;50.27;97041.34;5046942;28;20298;-68
2021/04/25 06:11:15;;;;;;;13.17;8.00;;;;;;;10.18;49.79;97047.94;5033450;28;20450;-70
2021/04/25 06:13:41;;;;;;;9.67;6.87;;;;;;;10.48;47.85;97046.66;5031729;28;20540;-70
2021/04/25 06:16:06;;;;;;;12.47;7.80;;;;;;;10.54;48.22;97043.44;5033291;28;20186;-71
2021/04/25 06:18:32;;;;;;;11.60;7.80;;;;;;;11.01;46.86;97046.56;5031509;28;20207;-68
2021/04/25 06:20:57;;;;;;;11.70;7.03;;;;;;;11.19;46.77;97047.28;5032266;28;20267;-71
2021/04/25 06:23:23;;;;;;;12.90;8.10;;;;;;;11.53;46.08;97051.63;5032342;28;20199;-70
2021/04/25 06:25:49;;;;;;;14.93;7.83;;;;;;;11.70;45.24;97061.31;5033140;28;20322;-70
2021/04/25 06:28:14;;;;;;;13.40;9.30;;;;;;;10.94;46.90;97056.88;5031203;28;20208;-72
2021/04/25 06:30:40;;;;;;;12.83;8.63;;;;;;;10.60;47.48;97058.53;5032621;28;20244;-69
2021/04/25 06:33:06;;;;;;;16.57;9.20;;;;;;;11.24;46.53;97048.59;5033291;28;20207;-71
2021/04/25 06:35:32;;;;;;;22.93;10.50;;;;;;;11.80;45.15;97052.31;5039888;28;20871;-70
2021/04/25 06:37:58;;;;;;;20.33;8.90;;;;;;;12.04;44.43;97053.31;5032269;28;20207;-70
2021/04/25 06:40:24;;;;;;;16.00;9.23;;;;;;;12.22;44.01;97052.31;5031154;28;20430;-72
2021/04/25 06:42:49;;;;;;;13.73;8.47;;;;;;;12.35;43.58;97052.59;5032221;28;20198;-71
2021/04/25 06:45:18;;;;;;;15.93;8.70;;;;;;;12.12;44.48;97057.75;5032053;28;20187;-71
2021/04/25 06:47:44;;;;;;;16.20;9.83;;;;;;;12.21;43.99;97055.94;5030821;28;20204;-73
2021/04/25 06:50:12;;;;;;;17.73;10.07;;;;;;;11.39;45.84;97054.06;5031506;28;20932;-72
2021/04/25 06:52:38;;;;;;;14.10;10.10;;;;;;;11.79;45.15;97057.69;5030744;28;20435;-68
2021/04/25 06:55:05;;;;;;;15.20;9.10;;;;;;;11.25;46.13;97060.75;5031964;28;20438;-71
2021/04/25 06:57:30;;;;;;;11.93;9.43;;;;;;;11.39;46.63;97057.50;5032240;28;20451;-72
2021/04/25 06:59:56;;;;;;;15.60;10.33;;;;;;;12.09;44.90;97055.44;5034720;28;20760;-71
2021/04/25 07:02:22;;;;;;;13.50;8.90;;;;;;;12.00;44.86;97062.50;5037446;28;20252;-70
2021/04/25 07:04:47;;;;;;;17.50;10.13;;;;;;;12.51;43.66;97056.19;5046668;28;20662;-69
2021/04/25 07:07:13;;;;;;;15.33;9.80;;;;;;;12.79;43.04;97063.66;5031517;28;20250;-71
2021/04/25 07:09:39;;;;;;;17.67;10.47;;;;;;;12.75;42.86;97063.19;5031869;28;20268;-70
2021/04/25 07:12:05;;;;;;;21.87;10.20;;;;;;;12.76;43.34;97067.47;5031430;28;20187;-72
2021/04/25 07:14:31;;;;;;;39.20;21.47;;;;;;;12.99;42.72;97064.91;5031816;28;20518;-71
2021/04/25 07:16:56;;;;;;;23.73;10.50;;;;;;;13.44;41.65;97067.03;5031483;28;20506;-70
2021/04/25 07:19:22;;;;;;;17.87;11.23;;;;;;;13.58;40.99;97074.19;5031173;28;20180;-72
2021/04/25 07:21:48;;;;;;;19.73;11.23;;;;;;;12.13;43.94;97075.94;5030987;28;20187;-70
2021/04/25 07:24:13;;;;;;;39.50;18.03;;;;;;;13.06;42.23;97073.75;5031404;28;20237;-72
2021/04/25 07:26:39;;;;;;;17.23;10.97;;;;;;;13.27;42.24;97068.91;5030874;28;20191;-70
2021/04/25 07:29:04;;;;;;;15.27;10.80;;;;;;;13.74;40.87;97059.22;5031094;28;20248;-72
2021/04/25 07:31:30;;;;;;;41.40;18.43;;;;;;;13.57;41.01;97066.44;5031118;28;20215;-72
2021/04/25 07:33:55;;;;;;;65.63;33.40;;;;;;;14.00;40.78;97056.25;5034017;28;20199;-70
2021/04/25 07:36:21;;;;;;;18.03;10.53;;;;;;;14.34;39.12;97057.59;5031603;28;20580;-71
2021/04/25 07:38:47;;;;;;;28.87;16.43;;;;;;;14.16;40.06;97060.56;5031210;28;20234;-72
2021/04/25 07:41:12;;;;;;;16.63;10.93;;;;;;;14.69;39.07;97050.00;5030897;28;20188;-70
2021/04/25 07:43:38;;;;;;;20.63;11.80;;;;;;;14.73;38.15;97047.81;5030679;28;20187;-70
2021/04/25 07:46:04;;;;;;;30.67;16.23;;;;;;;14.58;39.07;97055.69;5029732;28;20209;-69
2021/04/25 07:48:30;;;;;;;18.60;11.17;;;;;;;14.38;39.14;97063.31;5035929;28;20674;-70
2021/04/25 07:50:56;;;;;;;31.43;17.10;;;;;;;14.34;39.18;97062.84;5036121;28;20441;-69
2021/04/25 07:53:22;;;;;;;21.93;10.87;;;;;;;14.72;38.96;97047.00;5036622;28;20594;-70
2021/04/25 07:55:48;;;;;;;25.50;15.03;;;;;;;13.93;39.43;97066.69;5037630;28;20426;-69
2021/04/25 07:58:14;;;;;;;26.03;15.50;;;;;;;14.01;39.91;97057.88;5041341;28;20200;-72
2021/04/25 08:00:39;;;;;;;28.23;14.90;;;;;;;14.24;39.49;97057.81;5040076;28;20656;-71
2021/04/25 08:03:05;;;;;;;18.93;10.97;;;;;;;14.53;38.89;97056.22;5043445;28;20352;-72
2021/04/25 08:05:31;;;;;;;14.97;10.93;;;;;;;14.73;39.17;97050.47;5048490;28;20187;-71
2021/04/25 08:07:57;;;;;;;18.73;11.77;;;;;;;14.93;38.42;97044.63;5047365;28;20607;-70
2021/04/25 08:10:23;;;;;;;19.77;12.67;;;;;;;14.47;38.64;97051.69;5043135;28;20183;-70
2021/04/25 08:12:48;;;;;;;16.30;11.47;;;;;;;14.46;39.10;97050.06;5035565;28;20270;-71
2021/04/25 08:15:14;;;;;;;17.70;11.73;;;;;;;14.78;38.74;97048.09;5036521;28;20203;-70
2021/04/25 08:17:40;;;;;;;23.90;12.30;;;;;;;14.78;38.57;97045.44;5035297;28;20222;-71
2021/04/25 08:20:06;;;;;;;19.77;12.60;;;;;;;14.72;38.70;97046.19;5034125;28;20194;-71
2021/04/25 08:22:32;;;;;;;17.60;10.90;;;;;;;14.83;39.02;97045.72;5035053;28;20241;-68
2021/04/25 08:24:58;;;;;;;20.80;13.70;;;;;;;15.34;37.83;97047.53;5035019;28;20449;-71
2021/04/25 08:27:23;;;;;;;18.77;11.93;;;;;;;15.23;37.67;97045.38;5033963;28;20450;-70
2021/04/25 08:29:49;;;;;;;20.60;13.67;;;;;;;15.41;37.27;97052.09;5034773;28;20211;-71
2021/04/25 08:32:15;;;;;;;20.70;14.20;;;;;;;14.85;38.09;97053.44;5033522;28;20210;-70
2021/04/25 08:34:40;;;;;;;19.83;12.67;;;;;;;14.89;38.39;97050.25;5033079;28;20268;-70
2021/04/25 08:37:06;;;;;;;24.60;14.60;;;;;;;15.20;38.19;97051.84;5033244;28;20187;-72
2021/04/25 08:39:31;;;;;;;25.77;15.20;;;;;;;15.22;37.64;97058.78;5033807;28;20267;-71
2021/04/25 08:41:57;;;;;;;19.80;12.37;;;;;;;15.45;37.57;97059.44;5034302;28;20186;-69
2021/04/25 08:44:23;;;;;;;22.47;12.57;;;;;;;15.10;37.94;97066.34;5033861;28;20222;-69
2021/04/25 08:46:50;;;;;;;24.47;12.77;;;;;;;15.57;36.39;97059.75;5035990;28;20217;-69
2021/04/25 08:49:25;;;;;;;22.67;11.57;;;;;;;15.80;36.06;97053.50;5035335;28;20221;-70
2021/04/25 08:51:51;;;;;;;19.50;12.87;;;;;;;15.68;36.60;97057.66;5034483;28;20795;-70
2021/04/25 08:54:21;;;;;;;20.10;11.87;;;;;;;15.92;36.35;97059.09;5032879;28;20427;-70
2021/04/25 08:56:47;;;;;;;18.50;12.30;;;;;;;16.52;35.04;97053.44;5033810;28;20433;-69
2021/04/25 08:59:13;;;;;;;16.03;12.40;;;;;;;16.36;35.37;97055.41;5033239;28;20451;-69
2021/04/25 09:01:40;;;;;;;18.00;12.60;;;;;;;15.77;36.06;97053.84;5033633;28;20187;-70
2021/04/25 09:04:05;;;;;;;23.40;11.90;;;;;;;15.19;37.57;97054.66;5034311;28;20461;-70
2021/04/25 09:06:32;;;;;;;23.97;12.57;;;;;;;15.91;36.04;97054.81;5034064;28;20192;-69
2021/04/25 09:09:01;;;;;;;16.50;12.00;;;;;;;15.94;35.69;97062.38;5033925;28;20227;-70
2021/04/25 09:11:27;;;;;;;17.50;11.67;;;;;;;15.59;35.41;97059.59;5032476;28;20461;-69
2021/04/25 09:14:15;;;;;;;15.83;9.40;;;;;;;14.65;36.52;97061.06;5032755;28;20514;-70
2021/04/25 09:16:43;;;;;;;14.20;10.70;;;;;;;15.19;36.36;97065.22;5036407;28;20425;-72
2021/04/25 09:19:08;;;;;;;13.77;10.10;;;;;;;15.29;35.49;97057.84;5035423;28;20449;-69
2021/04/25 09:21:34;;;;;;;18.33;10.10;;;;;;;14.21;37.22;97062.66;5033690;28;20424;-70
2021/04/25 09:24:26;;;;;;;15.07;9.70;;;;;;;15.43;34.89;97056.16;5033850;28;20191;-70
2021/04/25 09:26:52;;;;;;;16.70;11.00;;;;;;;16.07;34.45;97057.19;5033956;28;20198;-69
2021/04/25 09:29:23;;;;;;;21.33;10.80;;;;;;;16.52;33.63;97053.44;5033107;28;20458;-70
2021/04/25 09:31:51;;;;;;;17.50;11.63;;;;;;;14.80;36.72;97061.91;5035715;28;20431;-71
2021/04/25 09:34:28;;;;;;;19.20;11.70;;;;;;;14.61;37.20;97057.16;5033633;28;20992;-70
2021/04/25 09:36:55;;;;;;;17.00;11.60;;;;;;;15.27;35.92;97046.66;5042653;28;20501;-71
2021/04/25 09:39:21;;;;;;;18.93;11.47;;;;;;;15.80;35.03;97048.19;5033334;28;20441;-69
2021/04/25 09:41:47;;;;;;;15.70;11.50;;;;;;;15.07;36.33;97050.88;5033369;28;20452;-70
2021/04/25 09:44:32;;;;;;;14.07;10.83;;;;;;;15.93;34.65;97048.34;5033149;28;20422;-70
2021/04/25 09:47:00;;;;;;;17.40;11.90;;;;;;;15.42;35.62;97049.25;5032960;28;20521;-69
2021/04/25 09:49:38;;;;;;;15.83;12.00;;;;;;;15.16;36.10;97042.66;5032890;28;20458;-70
2021/04/25 09:52:08;;;;;;;13.23;10.83;;;;;;;15.78;35.19;97037.81;5025261;28;20896;-70
2021/04/25 09:54:34;;;;;;;15.67;10.73;;;;;;;16.34;34.24;97046.00;5030809;28;20422;-68
2021/04/25 09:57:00;;;;;;;18.10;10.57;;;;;;;15.82;34.59;97038.25;5032567;28;20426;-70
2021/04/25 09:59:26;;;;;;;12.73;10.47;;;;;;;16.65;33.43;97032.34;5032695;28;20933;-69
2021/04/25 10:02:08;;;;;;;13.30;10.07;;;;;;;17.00;32.68;97035.00;5032092;28;20429;-70
2021/04/25 10:04:36;;;;;;;15.50;10.17;;;;;;;16.39;33.49;97025.91;5033030;28;20188;-69
2021/04/25 10:07:04;;;;;;;11.70;9.50;;;;;;;16.98;32.80;97036.22;5031402;28;20529;-70
2021/04/25 10:09:29;;;;;;;15.30;9.67;;;;;;;17.54;32.00;97035.16;5031776;28;21003;-69
2021/04/25 10:11:58;;;;;;;14.20;9.73;;;;;;;16.44;32.98;97038.56;5029734;28;20483;-72
2021/04/25 10:14:27;;;;;;;13.57;9.57;;;;;;;16.07;33.45;97036.06;5032680;28;20183;-70
2021/04/25 10:16:56;;;;;;;17.07;9.10;;;;;;;17.12;32.10;97032.59;5030896;28;20529;-70
2021/04/25 10:19:22;;;;;;;13.07;9.27;;;;;;;17.08;32.25;97030.56;5032964;28;20426;-69
2021/04/25 10:21:48;;;;;;;15.00;9.33;;;;;;;17.31;31.70;97033.69;5033596;28;20452;-71
2021/04/25 10:24:24;;;;;;;16.30;8.53;;;;;;;17.86;30.90;97038.06;5032299;28;20976;-71
2021/04/25 10:26:55;;;;;;;13.90;8.87;;;;;;;17.10;31.65;97044.41;5032214;28;20813;-70
2021/04/25 10:29:34;;;;;;;15.00;8.47;;;;;;;17.42;31.16;97034.09;5030370;28;20493;-70
2021/04/25 10:32:03;;;;;;;15.37;8.37;;;;;;;16.92;31.82;97027.19;5030891;28;20913;-71
2021/04/25 10:34:29;;;;;;;14.53;8.30;;;;;;;17.22;31.11;97026.94;5031585;28;20517;-71
2021/04/25 10:36:55;;;;;;;12.30;9.03;;;;;;;16.85;32.03;97029.00;5031507;28;20525;-70
2021/04/25 10:39:44;;;;;;;12.60;8.60;;;;;;;16.16;32.60;97022.69;5032416;28;20273;-69
2021/04/25 10:42:15;;;;;;;12.60;8.20;;;;;;;16.76;31.37;97027.53;5025305;28;20419;-69
2021/04/25 10:45:03;;;;;;;14.00;8.60;;;;;;;16.77;31.75;97021.22;5031908;28;20427;-71
2021/04/25 10:47:35;;;;;;;15.07;8.17;;;;;;;17.84;30.18;97018.91;5031414;28;20476;-72
2021/04/25 10:50:24;;;;;;;10.47;7.50;;;;;;;17.51;30.04;97024.97;5022397;28;20442;-70
2021/04/25 10:52:51;;;;;;;13.70;9.13;;;;;;;16.44;31.65;97012.13;5025346;28;20473;-72
2021/04/25 10:55:29;;;;;;;10.60;8.07;;;;;;;17.86;30.12;97016.88;5030370;28;20423;-69
2021/04/25 10:58:00;;;;;;;10.03;8.10;;;;;;;17.37;30.67;97013.53;5031419;28;20473;-68
2021/04/25 11:02:57;;;;;;;9.73;8.13;;;;;;;17.70;29.81;97018.09;5031074;28;20419;-70
2021/04/25 11:05:41;;;;;;;11.00;7.83;;;;;;;17.56;29.78;97027.03;5031413;28;20502;-70
2021/04/25 11:08:29;;;;;;;14.93;8.17;;;;;;;17.12;30.00;97010.63;5021985;28;20819;-71
2021/04/25 11:11:00;;;;;;;13.10;8.07;;;;;;;17.93;29.37;97022.16;5030745;28;20492;-71
2021/04/25 11:13:35;;;;;;;12.33;8.77;;;;;;;18.07;29.69;97007.94;5031288;28;20835;-68
2021/04/25 11:16:02;;;;;;;14.10;9.37;;;;;;;18.63;29.21;97008.41;5023580;28;20457;-70
2021/04/25 11:18:44;;;;;;;16.80;11.03;;;;;;;19.16;28.45;97009.28;5030136;28;20455;-71
2021/04/25 11:21:25;;;;;;;19.37;11.43;;;;;;;19.15;28.33;97005.78;5024038;28;20898;-69
2021/04/25 11:23:52;;;;;;;11.23;7.87;;;;;;;18.79;28.68;97009.78;5031000;28;20438;-71
2021/04/25 11:26:39;;;;;;;9.67;7.77;;;;;;;18.48;28.05;97019.28;5029317;28;20466;-70
2021/04/25 11:29:49;;;;;;;11.07;8.13;;;;;;;18.04;28.49;97008.31;5022807;28;20469;-72
2021/04/25 11:32:26;;;;;;;27.97;14.17;;;;;;;18.21;29.17;97008.72;5031981;28;20441;-70